sensor_id;sensor_type;location;lat;lon;timestamp;P1;durP1;ratioP1;P2;durP2;ratioP2
51525;SDS011;37611;51.794;21.590;2024-03-06T00:00:23;79.80;;;56.60;;
51525;SDS011;37611;51.794;21.590;2024-03-06T00:04:44;78.20;;;58.10;;
51525;SDS011;37611;51.794;21.590;2024-03-06T00:08:46;70.30;;;51.40;;
51525;SDS011;37611;51.794;21.590;2024-03-06T00:12:48;78.10;;;53.20;;
51525;SDS011;37611;51.794;21.590;2024-03-06T00:16:53;74.40;;;53.50;;
51525;SDS011;37611;51.794;21.590;2024-03-06T00:20:57;75.80;;;52.00;;
51525;SDS011;37611;51.794;21.590;2024-03-06T00:25:00;78.80;;;54.20;;
51525;SDS011;37611;51.794;21.590;2024-03-06T00:29:02;74.40;;;51.90;;
51525;SDS011;37611;51.794;21.590;2024-03-06T00:33:04;69.80;;;49.90;;
51525;SDS011;37611;51.794;21.590;2024-03-06T00:37:06;68.70;;;49.20;;
51525;SDS011;37611;51.794;21.590;2024-03-06T00:41:08;70.80;;;51.30;;
51525;SDS011;37611;51.794;21.590;2024-03-06T00:45:10;72.30;;;51.00;;
51525;SDS011;37611;51.794;21.590;2024-03-06T00:49:12;75.90;;;52.40;;
51525;SDS011;37611;51.794;21.590;2024-03-06T00:53:14;75.00;;;50.70;;
51525;SDS011;37611;51.794;21.590;2024-03-06T00:57:16;72.30;;;50.40;;
51525;SDS011;37611;51.794;21.590;2024-03-06T01:01:17;61.10;;;46.10;;
51525;SDS011;37611;51.794;21.590;2024-03-06T01:05:20;64.30;;;45.80;;
51525;SDS011;37611;51.794;21.590;2024-03-06T01:09:22;59.10;;;44.80;;
51525;SDS011;37611;51.794;21.590;2024-03-06T01:13:24;50.30;;;37.40;;
51525;SDS011;37611;51.794;21.590;2024-03-06T01:17:26;51.90;;;35.90;;
51525;SDS011;37611;51.794;21.590;2024-03-06T01:21:30;44.80;;;34.00;;
51525;SDS011;37611;51.794;21.590;2024-03-06T01:25:33;38.30;;;32.50;;
51525;SDS011;37611;51.794;21.590;2024-03-06T01:29:35;38.00;;;29.80;;
51525;SDS011;37611;51.794;21.590;2024-03-06T01:33:38;37.40;;;28.40;;
51525;SDS011;37611;51.794;21.590;2024-03-06T01:37:40;35.60;;;27.50;;
51525;SDS011;37611;51.794;21.590;2024-03-06T01:41:48;33.10;;;25.30;;
51525;SDS011;37611;51.794;21.590;2024-03-06T01:45:51;34.40;;;26.00;;
51525;SDS011;37611;51.794;21.590;2024-03-06T01:49:57;31.20;;;24.70;;
51525;SDS011;37611;51.794;21.590;2024-03-06T01:53:59;32.60;;;24.10;;
51525;SDS011;37611;51.794;21.590;2024-03-06T01:58:06;31.10;;;23.10;;
51525;SDS011;37611;51.794;21.590;2024-03-06T02:02:09;31.70;;;23.90;;
51525;SDS011;37611;51.794;21.590;2024-03-06T02:06:12;28.20;;;22.60;;
51525;SDS011;37611;51.794;21.590;2024-03-06T02:10:22;26.00;;;21.90;;
51525;SDS011;37611;51.794;21.590;2024-03-06T02:14:24;27.90;;;22.40;;
51525;SDS011;37611;51.794;21.590;2024-03-06T02:18:26;31.90;;;22.50;;
51525;SDS011;37611;51.794;21.590;2024-03-06T02:22:28;30.20;;;21.50;;
51525;SDS011;37611;51.794;21.590;2024-03-06T02:26:30;25.50;;;20.90;;
51525;SDS011;37611;51.794;21.590;2024-03-06T02:30:32;24.70;;;20.70;;
51525;SDS011;37611;51.794;21.590;2024-03-06T02:34:38;27.30;;;22.40;;
51525;SDS011;37611;51.794;21.590;2024-03-06T02:38:40;29.30;;;22.10;;
51525;SDS011;37611;51.794;21.590;2024-03-06T02:42:42;26.40;;;21.90;;
51525;SDS011;37611;51.794;21.590;2024-03-06T02:46:47;27.20;;;21.90;;
51525;SDS011;37611;51.794;21.590;2024-03-06T02:50:50;27.20;;;21.90;;
51525;SDS011;37611;51.794;21.590;2024-03-06T02:54:53;29.80;;;21.30;;
51525;SDS011;37611;51.794;21.590;2024-03-06T02:58:57;28.80;;;22.20;;
51525;SDS011;37611;51.794;21.590;2024-03-06T03:02:59;28.20;;;21.10;;
51525;SDS011;37611;51.794;21.590;2024-03-06T03:07:01;24.40;;;20.70;;
51525;SDS011;37611;51.794;21.590;2024-03-06T03:11:03;28.40;;;21.20;;
51525;SDS011;37611;51.794;21.590;2024-03-06T03:15:05;25.90;;;19.70;;
51525;SDS011;37611;51.794;21.590;2024-03-06T03:19:08;24.80;;;20.70;;
51525;SDS011;37611;51.794;21.590;2024-03-06T03:23:10;27.80;;;22.40;;
51525;SDS011;37611;51.794;21.590;2024-03-06T03:27:13;26.10;;;20.90;;
51525;SDS011;37611;51.794;21.590;2024-03-06T03:31:15;27.40;;;22.40;;
51525;SDS011;37611;51.794;21.590;2024-03-06T03:35:17;32.70;;;27.20;;
51525;SDS011;37611;51.794;21.590;2024-03-06T03:39:24;32.50;;;24.10;;
51525;SDS011;37611;51.794;21.590;2024-03-06T03:43:26;30.90;;;24.40;;
51525;SDS011;37611;51.794;21.590;2024-03-06T03:47:28;28.90;;;23.00;;
51525;SDS011;37611;51.794;21.590;2024-03-06T03:51:30;24.60;;;21.60;;
51525;SDS011;37611;51.794;21.590;2024-03-06T03:55:33;30.00;;;24.00;;
51525;SDS011;37611;51.794;21.590;2024-03-06T03:59:38;30.80;;;23.70;;
51525;SDS011;37611;51.794;21.590;2024-03-06T04:03:40;28.70;;;21.80;;
51525;SDS011;37611;51.794;21.590;2024-03-06T04:07:44;26.70;;;20.70;;
51525;SDS011;37611;51.794;21.590;2024-03-06T04:11:45;26.20;;;21.40;;
51525;SDS011;37611;51.794;21.590;2024-03-06T04:15:47;29.70;;;23.00;;
51525;SDS011;37611;51.794;21.590;2024-03-06T04:19:50;24.80;;;20.80;;
51525;SDS011;37611;51.794;21.590;2024-03-06T04:23:52;30.30;;;21.90;;
51525;SDS011;37611;51.794;21.590;2024-03-06T04:27:54;34.20;;;21.30;;
51525;SDS011;37611;51.794;21.590;2024-03-06T04:31:56;28.50;;;22.00;;
51525;SDS011;37611;51.794;21.590;2024-03-06T04:36:00;31.60;;;23.70;;
51525;SDS011;37611;51.794;21.590;2024-03-06T04:40:05;28.00;;;21.90;;
51525;SDS011;37611;51.794;21.590;2024-03-06T04:44:09;28.50;;;24.10;;
51525;SDS011;37611;51.794;21.590;2024-03-06T04:48:11;26.80;;;22.20;;
51525;SDS011;37611;51.794;21.590;2024-03-06T04:52:13;30.10;;;24.30;;
51525;SDS011;37611;51.794;21.590;2024-03-06T04:56:15;30.90;;;25.30;;
51525;SDS011;37611;51.794;21.590;2024-03-06T05:00:20;33.20;;;23.40;;
51525;SDS011;37611;51.794;21.590;2024-03-06T05:04:22;29.10;;;23.50;;
51525;SDS011;37611;51.794;21.590;2024-03-06T05:08:25;29.70;;;22.80;;
51525;SDS011;37611;51.794;21.590;2024-03-06T05:12:27;29.10;;;24.30;;
51525;SDS011;37611;51.794;21.590;2024-03-06T05:16:30;30.80;;;24.20;;
51525;SDS011;37611;51.794;21.590;2024-03-06T05:20:31;29.60;;;24.10;;
51525;SDS011;37611;51.794;21.590;2024-03-06T05:24:33;28.10;;;22.80;;
51525;SDS011;37611;51.794;21.590;2024-03-06T05:28:35;32.60;;;24.30;;
51525;SDS011;37611;51.794;21.590;2024-03-06T05:32:37;27.70;;;23.50;;
51525;SDS011;37611;51.794;21.590;2024-03-06T05:36:39;31.50;;;24.00;;
51525;SDS011;37611;51.794;21.590;2024-03-06T05:40:41;32.90;;;27.20;;
51525;SDS011;37611;51.794;21.590;2024-03-06T05:44:46;36.20;;;28.20;;
51525;SDS011;37611;51.794;21.590;2024-03-06T05:48:50;33.20;;;25.20;;
51525;SDS011;37611;51.794;21.590;2024-03-06T05:52:52;31.10;;;24.70;;
51525;SDS011;37611;51.794;21.590;2024-03-06T05:56:54;28.00;;;24.30;;
51525;SDS011;37611;51.794;21.590;2024-03-06T06:00:56;30.20;;;23.60;;
51525;SDS011;37611;51.794;21.590;2024-03-06T06:04:58;32.30;;;25.40;;
51525;SDS011;37611;51.794;21.590;2024-03-06T06:08:59;29.60;;;24.50;;
51525;SDS011;37611;51.794;21.590;2024-03-06T06:13:01;31.30;;;24.70;;
51525;SDS011;37611;51.794;21.590;2024-03-06T06:17:05;36.00;;;27.20;;
51525;SDS011;37611;51.794;21.590;2024-03-06T06:21:07;33.70;;;25.30;;
51525;SDS011;37611;51.794;21.590;2024-03-06T06:25:10;29.20;;;24.40;;
51525;SDS011;37611;51.794;21.590;2024-03-06T06:29:12;29.40;;;24.20;;
51525;SDS011;37611;51.794;21.590;2024-03-06T06:33:13;31.60;;;24.60;;
51525;SDS011;37611;51.794;21.590;2024-03-06T06:37:15;29.30;;;23.60;;
51525;SDS011;37611;51.794;21.590;2024-03-06T06:41:17;29.80;;;23.90;;
51525;SDS011;37611;51.794;21.590;2024-03-06T06:45:20;29.80;;;24.30;;
51525;SDS011;37611;51.794;21.590;2024-03-06T06:49:26;30.70;;;25.20;;
51525;SDS011;37611;51.794;21.590;2024-03-06T06:53:35;34.00;;;26.50;;
51525;SDS011;37611;51.794;21.590;2024-03-06T06:57:40;35.30;;;28.80;;
51525;SDS011;37611;51.794;21.590;2024-03-06T07:01:42;33.30;;;29.20;;
51525;SDS011;37611;51.794;21.590;2024-03-06T07:05:44;32.80;;;28.60;;
51525;SDS011;37611;51.794;21.590;2024-03-06T07:09:49;32.50;;;27.20;;
51525;SDS011;37611;51.794;21.590;2024-03-06T07:13:51;33.90;;;27.60;;
51525;SDS011;37611;51.794;21.590;2024-03-06T07:17:56;38.70;;;29.10;;
51525;SDS011;37611;51.794;21.590;2024-03-06T07:21:58;33.40;;;27.20;;
51525;SDS011;37611;51.794;21.590;2024-03-06T07:26:00;35.00;;;28.10;;
51525;SDS011;37611;51.794;21.590;2024-03-06T07:30:02;34.00;;;27.60;;
51525;SDS011;37611;51.794;21.590;2024-03-06T07:34:04;36.30;;;29.20;;
51525;SDS011;37611;51.794;21.590;2024-03-06T07:38:08;36.70;;;29.30;;
51525;SDS011;37611;51.794;21.590;2024-03-06T07:42:11;45.50;;;34.70;;
51525;SDS011;37611;51.794;21.590;2024-03-06T07:46:15;40.50;;;31.80;;
51525;SDS011;37611;51.794;21.590;2024-03-06T07:50:17;36.10;;;28.50;;
51525;SDS011;37611;51.794;21.590;2024-03-06T07:54:21;33.80;;;27.70;;
51525;SDS011;37611;51.794;21.590;2024-03-06T07:58:22;33.30;;;26.60;;
51525;SDS011;37611;51.794;21.590;2024-03-06T08:02:23;33.70;;;27.40;;
51525;SDS011;37611;51.794;21.590;2024-03-06T08:06:24;27.90;;;22.90;;
51525;SDS011;37611;51.794;21.590;2024-03-06T08:10:25;31.40;;;25.10;;
51525;SDS011;37611;51.794;21.590;2024-03-06T08:14:26;32.90;;;26.40;;
51525;SDS011;37611;51.794;21.590;2024-03-06T08:18:27;29.20;;;23.30;;
51525;SDS011;37611;51.794;21.590;2024-03-06T08:22:28;28.20;;;22.60;;
51525;SDS011;37611;51.794;21.590;2024-03-06T08:26:29;32.90;;;25.90;;
51525;SDS011;37611;51.794;21.590;2024-03-06T08:30:30;32.10;;;24.10;;
51525;SDS011;37611;51.794;21.590;2024-03-06T08:34:31;28.80;;;24.20;;
51525;SDS011;37611;51.794;21.590;2024-03-06T08:38:32;29.00;;;21.70;;
51525;SDS011;37611;51.794;21.590;2024-03-06T08:42:32;28.20;;;21.00;;
51525;SDS011;37611;51.794;21.590;2024-03-06T08:46:33;31.80;;;22.70;;
51525;SDS011;37611;51.794;21.590;2024-03-06T08:50:34;27.70;;;21.60;;
51525;SDS011;37611;51.794;21.590;2024-03-06T08:54:36;26.40;;;21.30;;
51525;SDS011;37611;51.794;21.590;2024-03-06T16:29:48;23.30;;;14.70;;
51525;SDS011;37611;51.794;21.590;2024-03-06T16:33:49;29.30;;;18.90;;
51525;SDS011;37611;51.794;21.590;2024-03-06T16:53:38;23.00;;;17.60;;
51525;SDS011;37611;51.794;21.590;2024-03-06T16:57:40;31.90;;;22.60;;
51525;SDS011;37611;51.794;21.590;2024-03-06T17:01:42;33.00;;;21.70;;
51525;SDS011;37611;51.794;21.590;2024-03-06T17:05:43;39.10;;;27.40;;
51525;SDS011;37611;51.794;21.590;2024-03-06T17:09:44;40.90;;;29.00;;
51525;SDS011;37611;51.794;21.590;2024-03-06T17:13:47;29.80;;;21.60;;
51525;SDS011;37611;51.794;21.590;2024-03-06T17:17:49;32.70;;;20.60;;
51525;SDS011;37611;51.794;21.590;2024-03-06T17:21:53;31.20;;;20.70;;
51525;SDS011;37611;51.794;21.590;2024-03-06T17:25:55;24.50;;;18.80;;
51525;SDS011;37611;51.794;21.590;2024-03-06T17:29:58;24.70;;;18.40;;
51525;SDS011;37611;51.794;21.590;2024-03-06T17:34:04;23.00;;;17.80;;
51525;SDS011;37611;51.794;21.590;2024-03-06T17:38:07;29.20;;;18.30;;
51525;SDS011;37611;51.794;21.590;2024-03-06T17:42:11;45.40;;;23.90;;
51525;SDS011;37611;51.794;21.590;2024-03-06T17:46:14;30.90;;;19.90;;
51525;SDS011;37611;51.794;21.590;2024-03-06T17:50:17;44.20;;;27.40;;
51525;SDS011;37611;51.794;21.590;2024-03-06T17:54:19;31.60;;;23.30;;
51525;SDS011;37611;51.794;21.590;2024-03-06T17:58:23;29.60;;;21.70;;
51525;SDS011;37611;51.794;21.590;2024-03-06T18:02:28;32.80;;;23.80;;
51525;SDS011;37611;51.794;21.590;2024-03-06T18:06:36;30.80;;;21.20;;
51525;SDS011;37611;51.794;21.590;2024-03-06T18:10:49;34.30;;;23.70;;
51525;SDS011;37611;51.794;21.590;2024-03-06T18:14:56;31.40;;;22.70;;
51525;SDS011;37611;51.794;21.590;2024-03-06T18:19:03;27.20;;;19.90;;
51525;SDS011;37611;51.794;21.590;2024-03-06T18:23:06;32.10;;;20.90;;
51525;SDS011;37611;51.794;21.590;2024-03-06T18:27:16;26.90;;;18.00;;
51525;SDS011;37611;51.794;21.590;2024-03-06T18:31:21;24.30;;;18.10;;
51525;SDS011;37611;51.794;21.590;2024-03-06T18:35:24;32.70;;;20.70;;
51525;SDS011;37611;51.794;21.590;2024-03-06T18:39:29;29.60;;;20.30;;
51525;SDS011;37611;51.794;21.590;2024-03-06T18:43:54;48.60;;;37.40;;
51525;SDS011;37611;51.794;21.590;2024-03-06T18:47:57;45.40;;;32.90;;
51525;SDS011;37611;51.794;21.590;2024-03-06T18:52:03;36.00;;;25.60;;
51525;SDS011;37611;51.794;21.590;2024-03-06T18:56:07;25.50;;;18.40;;
51525;SDS011;37611;51.794;21.590;2024-03-06T19:00:12;42.90;;;28.60;;
51525;SDS011;37611;51.794;21.590;2024-03-06T19:04:15;26.80;;;20.10;;
51525;SDS011;37611;51.794;21.590;2024-03-06T19:08:24;38.40;;;25.80;;
51525;SDS011;37611;51.794;21.590;2024-03-06T19:12:28;38.60;;;25.30;;
51525;SDS011;37611;51.794;21.590;2024-03-06T19:16:30;37.80;;;26.10;;
51525;SDS011;37611;51.794;21.590;2024-03-06T19:20:35;28.70;;;20.80;;
51525;SDS011;37611;51.794;21.590;2024-03-06T19:24:40;29.10;;;20.60;;
51525;SDS011;37611;51.794;21.590;2024-03-06T19:28:43;38.20;;;24.30;;
51525;SDS011;37611;51.794;21.590;2024-03-06T19:32:45;37.80;;;26.50;;
51525;SDS011;37611;51.794;21.590;2024-03-06T19:36:48;28.60;;;22.90;;
51525;SDS011;37611;51.794;21.590;2024-03-06T19:40:56;39.00;;;25.50;;
51525;SDS011;37611;51.794;21.590;2024-03-06T19:44:58;34.50;;;24.30;;
51525;SDS011;37611;51.794;21.590;2024-03-06T19:49:00;33.80;;;24.20;;
51525;SDS011;37611;51.794;21.590;2024-03-06T19:53:03;33.00;;;24.70;;
51525;SDS011;37611;51.794;21.590;2024-03-06T19:57:05;27.50;;;21.40;;
51525;SDS011;37611;51.794;21.590;2024-03-06T20:01:07;34.10;;;26.10;;
51525;SDS011;37611;51.794;21.590;2024-03-06T20:05:14;40.60;;;24.60;;
51525;SDS011;37611;51.794;21.590;2024-03-06T20:09:17;36.40;;;25.40;;
51525;SDS011;37611;51.794;21.590;2024-03-06T20:13:23;37.40;;;26.80;;
51525;SDS011;37611;51.794;21.590;2024-03-06T20:17:25;36.10;;;26.80;;
51525;SDS011;37611;51.794;21.590;2024-03-06T20:21:28;41.80;;;25.90;;
51525;SDS011;37611;51.794;21.590;2024-03-06T20:25:36;39.70;;;29.60;;
51525;SDS011;37611;51.794;21.590;2024-03-06T20:29:39;47.50;;;32.70;;
51525;SDS011;37611;51.794;21.590;2024-03-06T20:33:42;35.30;;;23.50;;
51525;SDS011;37611;51.794;21.590;2024-03-06T20:37:46;70.10;;;43.20;;
51525;SDS011;37611;51.794;21.590;2024-03-06T20:41:50;62.90;;;37.40;;
51525;SDS011;37611;51.794;21.590;2024-03-06T20:45:56;58.70;;;38.80;;
51525;SDS011;37611;51.794;21.590;2024-03-06T20:49:58;55.90;;;33.50;;
51525;SDS011;37611;51.794;21.590;2024-03-06T20:54:02;46.90;;;29.00;;
51525;SDS011;37611;51.794;21.590;2024-03-06T20:58:06;65.90;;;38.20;;
51525;SDS011;37611;51.794;21.590;2024-03-06T21:02:08;49.50;;;28.20;;
51525;SDS011;37611;51.794;21.590;2024-03-06T21:06:10;34.60;;;23.00;;
51525;SDS011;37611;51.794;21.590;2024-03-06T21:10:15;38.80;;;25.00;;
51525;SDS011;37611;51.794;21.590;2024-03-06T21:14:17;41.70;;;26.00;;
51525;SDS011;37611;51.794;21.590;2024-03-06T21:18:20;47.40;;;29.00;;
51525;SDS011;37611;51.794;21.590;2024-03-06T21:22:22;46.10;;;28.90;;
51525;SDS011;37611;51.794;21.590;2024-03-06T21:26:25;39.60;;;25.90;;
51525;SDS011;37611;51.794;21.590;2024-03-06T21:30:27;26.40;;;15.90;;
51525;SDS011;37611;51.794;21.590;2024-03-06T21:34:29;38.00;;;23.80;;
51525;SDS011;37611;51.794;21.590;2024-03-06T21:53:52;48.90;;;25.00;;
51525;SDS011;37611;51.794;21.590;2024-03-06T21:57:54;29.70;;;19.80;;
51525;SDS011;37611;51.794;21.590;2024-03-06T22:01:57;36.40;;;22.10;;
51525;SDS011;37611;51.794;21.590;2024-03-06T22:05:59;37.70;;;22.90;;
51525;SDS011;37611;51.794;21.590;2024-03-06T22:10:04;38.20;;;22.80;;
51525;SDS011;37611;51.794;21.590;2024-03-06T22:14:13;36.80;;;22.60;;
51525;SDS011;37611;51.794;21.590;2024-03-06T22:18:15;40.90;;;22.40;;
51525;SDS011;37611;51.794;21.590;2024-03-06T22:22:17;31.30;;;22.30;;
51525;SDS011;37611;51.794;21.590;2024-03-06T22:26:19;26.10;;;17.00;;
51525;SDS011;37611;51.794;21.590;2024-03-06T22:30:20;36.30;;;20.50;;
51525;SDS011;37611;51.794;21.590;2024-03-06T22:34:22;46.40;;;24.10;;
51525;SDS011;37611;51.794;21.590;2024-03-06T22:38:25;47.60;;;24.80;;
51525;SDS011;37611;51.794;21.590;2024-03-06T22:42:29;41.40;;;22.80;;
51525;SDS011;37611;51.794;21.590;2024-03-06T22:46:34;45.20;;;23.90;;
51525;SDS011;37611;51.794;21.590;2024-03-06T22:50:37;37.50;;;22.00;;
51525;SDS011;37611;51.794;21.590;2024-03-06T22:54:39;63.90;;;45.50;;
51525;SDS011;37611;51.794;21.590;2024-03-06T22:58:41;54.00;;;37.70;;
51525;SDS011;37611;51.794;21.590;2024-03-06T23:02:43;43.40;;;26.20;;
51525;SDS011;37611;51.794;21.590;2024-03-06T23:06:46;42.80;;;25.10;;
51525;SDS011;37611;51.794;21.590;2024-03-06T23:10:50;41.10;;;23.40;;
51525;SDS011;37611;51.794;21.590;2024-03-06T23:14:52;37.90;;;23.50;;
51525;SDS011;37611;51.794;21.590;2024-03-06T23:18:55;31.00;;;21.20;;
51525;SDS011;37611;51.794;21.590;2024-03-06T23:22:58;30.00;;;19.80;;
51525;SDS011;37611;51.794;21.590;2024-03-06T23:27:00;34.30;;;22.40;;
51525;SDS011;37611;51.794;21.590;2024-03-06T23:31:03;24.30;;;19.60;;
51525;SDS011;37611;51.794;21.590;2024-03-06T23:35:09;26.50;;;18.20;;
51525;SDS011;37611;51.794;21.590;2024-03-06T23:39:18;25.40;;;19.20;;
51525;SDS011;37611;51.794;21.590;2024-03-06T23:43:20;28.00;;;18.30;;
51525;SDS011;37611;51.794;21.590;2024-03-06T23:47:22;24.40;;;18.00;;
51525;SDS011;37611;51.794;21.590;2024-03-06T23:51:24;28.80;;;19.60;;
51525;SDS011;37611;51.794;21.590;2024-03-06T23:55:26;31.30;;;21.00;;
51525;SDS011;37611;51.794;21.590;2024-03-06T23:59:30;27.40;;;18.20;;
